Time;durP1;ratioP1;P1;durP2;ratioP2;P2;SDS_P1;SDS_P2;PMS_P1;PMS_P2;Temp;Humidity;BMP_temperature;BMP_pressure;BME280_temperature;BME280_humidity;BME280_pressure;Samples;Min_cycle;Max_cycle;Signal;HPM_P1;HPM_P2
2023/04/25 00:00:55;;;;;;;3.97;2.77;;;8.40;99.90;;;11.54;54.19;96999.03;5063231;28;20033;-36
2023/04/25 00:03:24;;;;;;;3.37;3.00;;;8.40;99.90;;;11.67;53.85;96987.72;5060965;28;20045;-36
2023/04/25 00:05:52;;;;;;;3.67;2.70;;;8.50;99.90;;;11.70;53.60;96990.03;5058422;28;20053;-36
2023/04/25 00:08:20;;;;;;;5.57;3.13;;;8.50;99.90;;;11.71;53.83;96981.00;5059773;28;20068;-37
2023/04/25 00:10:48;;;;;;;5.40;3.00;;;8.60;99.90;;;11.66;53.76;96976.22;5057732;28;20059;-37
2023/04/25 00:13:17;;;;;;;3.77;3.07;;;8.50;99.90;;;11.65;54.29;96982.59;5060614;28;20067;-37
2023/04/25 00:15:47;;;;;;;6.10;3.63;;;8.50;99.90;;;11.71;53.84;96975.66;5059093;28;20045;-37
2023/04/25 00:18:15;;;;;;;4.10;2.40;;;8.50;99.90;;;11.75;53.47;96974.31;5058895;28;20041;-37
2023/04/25 00:20:46;;;;;;;5.07;3.10;;;8.50;99.90;;;11.78;53.14;96968.59;5062426;28;20497;-36
2023/04/25 00:23:19;;;;;;;4.20;2.93;;;8.50;99.90;;;11.81;53.23;96982.38;5062148;28;20051;-37
2023/04/25 00:25:49;;;;;;;4.15;2.80;;;8.60;99.90;;;11.78;53.71;96990.72;5058996;28;20418;-37
2023/04/25 00:28:17;;;;;;;3.63;2.90;;;8.60;99.90;;;11.87;53.20;96996.81;5060190;28;20107;-36
2023/04/25 00:30:44;;;;;;;3.97;3.10;;;8.70;99.90;;;11.90;53.34;96996.47;5061341;28;20075;-36
2023/04/25 00:33:12;;;;;;;3.90;3.07;;;8.70;99.90;;;11.94;52.98;96994.25;5062123;28;20056;-37
2023/04/25 00:35:40;;;;;;;4.37;2.90;;;8.80;99.90;;;11.98;52.93;96993.72;5057009;28;20071;-37
2023/04/25 00:38:07;;;;;;;4.80;3.10;;;8.80;99.90;;;12.04;52.73;96988.63;5059074;28;20084;-37
2023/04/25 00:40:35;;;;;;;6.23;3.30;;;8.90;99.90;;;12.08;53.21;96992.56;5060438;28;20049;-37
2023/04/25 00:43:02;;;;;;;5.00;3.90;;;8.90;99.90;;;12.11;53.12;96987.69;5060780;28;20056;-36
2023/04/25 00:45:30;;;;;;;4.17;2.90;;;8.90;99.90;;;12.10;53.17;96985.25;5057384;28;20505;-37
2023/04/25 00:47:58;;;;;;;5.50;3.70;;;8.90;99.90;;;12.10;52.98;96993.25;5057475;28;20049;-37
2023/04/25 00:50:25;;;;;;;3.87;3.27;;;8.80;99.90;;;12.10;53.09;96987.91;5059118;28;20158;-37
2023/04/25 00:52:54;;;;;;;4.53;3.27;;;8.80;99.90;;;12.13;52.88;96979.50;5060958;28;20429;-37
2023/04/25 00:55:22;;;;;;;3.23;2.60;;;8.80;99.90;;;12.14;52.81;96974.00;5042294;28;20040;-37
2023/04/25 00:57:50;;;;;;;5.37;3.30;;;8.90;99.90;;;12.17;53.10;96970.13;5048998;28;20045;-36
2023/04/25 01:00:18;;;;;;;4.57;3.60;;;8.90;99.90;;;12.13;53.23;96967.00;5057857;28;20056;-37
2023/04/25 01:02:46;;;;;;;4.33;2.90;;;8.80;99.90;;;12.07;53.21;96957.06;5062242;28;20048;-37
2023/04/25 01:05:14;;;;;;;5.90;3.30;;;8.70;99.90;;;12.06;53.12;96962.59;5061657;28;20041;-36
2023/04/25 01:07:42;;;;;;;3.70;3.13;;;8.70;99.90;;;12.08;53.10;96964.06;5060853;28;20498;-37
2023/04/25 01:10:10;;;;;;;4.13;3.53;;;8.80;99.90;;;12.09;53.39;96971.06;5044530;28;20049;-37
2023/04/25 01:12:38;;;;;;;5.97;3.10;;;8.80;99.90;;;12.05;53.50;96966.28;5080983;28;20394;-37
2023/04/25 01:15:06;;;;;;;4.53;2.80;;;8.80;99.90;;;12.00;53.41;96965.00;5047997;28;20051;-37
2023/04/25 01:17:34;;;;;;;3.93;3.03;;;8.70;99.90;;;12.01;53.49;96963.16;5062191;28;20415;-36
2023/04/25 01:20:07;;;;;;;5.37;3.70;;;8.80;99.90;;;11.99;52.90;96960.66;5061176;28;20048;-37
2023/04/25 01:22:35;;;;;;;3.97;3.20;;;8.70;99.90;;;11.98;53.10;96963.53;5063302;28;20048;-36
2023/04/25 01:25:03;;;;;;;5.23;3.33;;;8.70;99.90;;;11.98;52.84;96959.03;5065716;28;20399;-36
2023/04/25 01:27:31;;;;;;;5.30;3.03;;;8.70;99.90;;;11.96;53.04;96961.06;5061792;28;20056;-37
2023/04/25 01:30:00;;;;;;;5.93;3.07;;;8.70;99.90;;;11.95;52.80;96956.72;5061078;28;20045;-37
2023/04/25 01:32:28;;;;;;;4.17;2.80;;;8.70;99.90;;;11.94;52.50;96955.09;5064090;28;20064;-37
2023/04/25 01:34:55;;;;;;;5.10;2.70;;;8.70;99.90;;;11.92;52.48;96959.78;5063806;28;20056;-37
2023/04/25 01:37:23;;;;;;;7.53;2.93;;;8.70;99.90;;;11.91;52.49;96958.13;5064467;28;20044;-37
2023/04/25 01:39:51;;;;;;;6.13;3.33;;;8.70;99.90;;;11.92;52.77;96964.28;5062257;28;20071;-37
2023/04/25 01:42:19;;;;;;;4.23;2.67;;;8.70;99.90;;;11.92;52.45;96962.44;5060878;28;20045;-36
2023/04/25 01:44:47;;;;;;;3.90;2.60;;;8.80;99.90;;;11.96;52.65;96965.56;5064201;28;20037;-36
2023/04/25 01:47:15;;;;;;;4.30;2.57;;;8.80;99.90;;;11.95;52.41;96966.56;5062974;28;20052;-36
2023/04/25 01:49:43;;;;;;;3.67;2.53;;;8.80;99.90;;;11.96;52.91;96960.22;5040653;28;20064;-36
2023/04/25 01:52:10;;;;;;;4.57;2.50;;;8.80;99.90;;;11.99;52.76;96958.00;5057947;28;20049;-36
2023/04/25 01:54:43;;;;;;;3.50;2.73;;;8.90;99.90;;;12.01;52.43;96955.97;5064411;28;20040;-36
2023/04/25 01:57:12;;;;;;;4.78;2.80;;;8.80;99.90;;;12.00;52.49;96957.00;5063671;28;20040;-36
2023/04/25 01:59:43;;;;;;;5.17;2.60;;;8.80;99.90;;;11.97;52.53;96962.69;5049031;28;20045;-36
2023/04/25 02:02:37;;;;;;;3.20;2.40;;;8.80;99.90;;;12.00;52.62;96958.84;5063197;28;20047;-36
2023/04/25 02:05:07;;;;;;;3.13;2.57;;;8.80;99.90;;;11.95;52.47;96947.91;5063382;28;20051;-36
2023/04/25 02:07:38;;;;;;;2.90;2.50;;;8.70;99.90;;;11.94;52.19;96949.75;5059849;28;20037;-36
2023/04/25 02:10:07;;;;;;;5.03;2.53;;;8.70;99.90;;;11.88;52.24;96946.97;5040749;28;20046;-36
2023/04/25 02:12:41;;;;;;;4.20;2.83;;;8.60;99.90;;;11.87;52.35;96956.00;5063499;28;20056;-36
2023/04/25 02:15:23;;;;;;;3.33;2.47;;;8.60;99.90;;;11.78;52.52;96948.06;5062528;28;20044;-36
2023/04/25 02:17:55;;;;;;;4.13;2.50;;;8.50;99.90;;;11.77;52.53;96954.44;5059606;28;20052;-37
2023/04/25 02:20:24;;;;;;;4.50;2.67;;;8.60;99.90;;;11.78;52.46;96953.41;5062097;28;20048;-36
2023/04/25 02:22:52;;;;;;;3.40;2.90;;;8.60;99.90;;;11.82;52.74;96952.03;5062940;28;20044;-36
2023/04/25 02:25:21;;;;;;;5.63;2.93;;;8.60;99.90;;;11.83;52.75;96955.53;5063518;28;20048;-36
2023/04/25 02:27:50;;;;;;;4.83;2.80;;;8.70;99.90;;;11.84;52.64;96941.16;5056196;28;20041;-36
2023/04/25 02:30:17;;;;;;;4.20;2.93;;;8.70;99.90;;;11.85;52.56;96940.16;5056307;28;20049;-37
2023/04/25 02:32:46;;;;;;;3.80;3.03;;;8.70;99.90;;;11.87;52.87;96948.81;5062781;28;20059;-37
2023/04/25 02:35:13;;;;;;;3.37;2.50;;;8.70;99.90;;;11.87;52.80;96946.13;5064659;28;20040;-37
2023/04/25 02:37:42;;;;;;;4.43;2.90;;;8.60;99.90;;;11.88;52.45;96939.78;5035011;28;20482;-36
2023/04/25 02:40:09;;;;;;;4.77;2.53;;;8.60;99.90;;;11.89;52.67;96937.97;5060941;28;20044;-36
2023/04/25 02:42:37;;;;;;;3.90;3.23;;;8.60;99.90;;;11.90;52.66;96940.44;5063734;28;20410;-36
2023/04/25 02:45:05;;;;;;;4.30;3.00;;;8.70;99.90;;;11.90;52.79;96939.63;5064405;28;20048;-36
2023/04/25 02:47:33;;;;;;;4.63;2.73;;;8.70;99.90;;;11.90;52.61;96939.63;5061937;28;20048;-36
2023/04/25 02:50:00;;;;;;;4.33;3.20;;;8.70;99.90;;;11.82;53.01;96927.19;5059231;28;20556;-36
2023/04/25 02:52:28;;;;;;;4.53;3.40;;;8.70;99.90;;;11.82;52.95;96932.53;5060724;28;20060;-37
2023/04/25 02:55:05;;;;;;;5.93;2.90;;;8.70;99.90;;;11.90;52.87;96929.78;5062835;28;20747;-36
2023/04/25 02:57:34;;;;;;;6.10;3.63;;;8.70;99.90;;;11.89;52.45;96925.47;5059950;28;20052;-36
2023/04/25 03:00:04;;;;;;;3.43;2.80;;;8.70;99.90;;;11.85;52.36;96924.16;5059655;28;20056;-36
2023/04/25 03:02:32;;;;;;;5.00;3.13;;;8.70;99.90;;;11.81;52.58;96921.03;5060219;28;20072;-36
2023/04/25 03:04:59;;;;;;;3.93;3.00;;;8.70;99.90;;;11.75;52.15;96924.47;5062351;28;20299;-37
2023/04/25 03:07:28;;;;;;;5.47;3.30;;;8.70;99.90;;;11.70;52.33;96923.34;5060668;28;20514;-37
2023/04/25 03:09:56;;;;;;;4.67;3.50;;;8.60;99.90;;;11.69;52.73;96919.88;5060482;28;20041;-36
2023/04/25 03:12:24;;;;;;;6.23;3.40;;;8.60;99.90;;;11.69;52.93;96919.03;5056557;28;20049;-37
2023/04/25 03:14:51;;;;;;;5.80;3.30;;;8.60;99.90;;;11.70;52.59;96926.03;5062631;28;20045;-36
2023/04/25 03:17:19;;;;;;;4.40;3.20;;;8.60;99.90;;;11.73;52.62;96917.63;5061666;28;20055;-37
2023/04/25 03:19:47;;;;;;;4.57;3.17;;;8.60;99.90;;;11.75;52.59;96918.31;5047270;28;20049;-36
2023/04/25 03:22:14;;;;;;;6.23;3.63;;;8.70;99.90;;;11.81;52.41;96929.03;5058338;28;20053;-36
2023/04/25 03:24:42;;;;;;;5.93;3.60;;;8.70;99.90;;;11.82;52.45;96927.19;5061483;28;20046;-36
2023/04/25 03:27:10;;;;;;;4.67;3.90;;;8.70;99.90;;;11.83;52.45;96927.00;5061940;28;20044;-37
2023/04/25 03:29:37;;;;;;;4.07;3.13;;;8.70;99.90;;;11.84;52.50;96930.50;5042623;28;20049;-36
2023/04/25 03:32:05;;;;;;;4.37;3.97;;;8.60;99.90;;;11.83;52.34;96924.34;5058510;28;20056;-36
2023/04/25 03:34:33;;;;;;;5.80;3.40;;;8.60;99.90;;;11.85;52.40;96926.00;5058813;28;20052;-36
2023/04/25 03:37:01;;;;;;;4.20;3.23;;;8.60;99.90;;;11.85;52.27;96921.50;5061618;28;20651;-36
2023/04/25 03:39:31;;;;;;;5.00;3.73;;;8.60;99.90;;;11.83;52.82;96915.53;5060222;28;20333;-36
2023/04/25 03:41:58;;;;;;;3.93;3.13;;;8.60;99.90;;;11.85;52.60;96923.34;5038548;28;20517;-36
2023/04/25 03:44:28;;;;;;;6.10;3.20;;;8.60;99.90;;;11.82;52.54;96922.72;5057169;28;20521;-36
2023/04/25 03:46:56;;;;;;;5.60;3.40;;;8.50;99.90;;;11.74;52.64;96917.47;5062221;28;20439;-36
2023/04/25 03:49:25;;;;;;;4.50;3.47;;;8.50;99.90;;;11.74;52.53;96913.97;5061538;28;20037;-37
2023/04/25 03:52:02;;;;;;;4.57;3.47;;;8.50;99.90;;;11.72;52.64;96916.00;5058095;28;20395;-37
2023/04/25 03:54:35;;;;;;;5.57;3.80;;;8.50;99.90;;;11.67;52.63;96918.38;5058409;28;20053;-36
2023/04/25 03:57:07;;;;;;;5.93;4.30;;;8.40;99.90;;;11.70;52.88;96918.84;5061452;28;20044;-37
2023/04/25 03:59:38;;;;;;;4.93;4.10;;;8.40;99.90;;;11.53;52.99;96920.88;5059538;28;20049;-36
2023/04/25 04:02:07;;;;;;;5.10;3.63;;;8.40;99.90;;;11.22;54.06;96921.06;5057705;28;20041;-36
2023/04/25 04:04:37;;;;;;;6.33;4.10;;;8.10;99.90;;;11.29;53.59;96926.50;5058759;28;20041;-36
2023/04/25 04:07:05;;;;;;;4.63;3.87;;;8.10;99.90;;;11.41;53.23;96923.19;5062981;28;20044;-36
2023/04/25 04:09:36;;;;;;;4.83;4.00;;;8.20;99.90;;;11.40;53.26;96931.38;5058907;28;20051;-36
2023/04/25 04:12:08;;;;;;;5.13;3.77;;;8.20;99.90;;;11.47;53.28;96924.28;5058051;28;20417;-36
2023/04/25 04:14:38;;;;;;;5.80;4.10;;;8.30;99.90;;;11.56;53.45;96930.38;5049909;28;20059;-36
2023/04/25 04:17:05;;;;;;;4.93;3.60;;;8.40;99.90;;;11.61;53.44;96931.47;5057571;28;20060;-36
2023/04/25 04:19:33;;;;;;;5.40;3.43;;;8.40;99.90;;;11.65;53.29;96931.94;5048952;28;20060;-37
2023/04/25 04:22:09;;;;;;;7.70;5.00;;;8.50;99.90;;;11.71;52.71;96928.50;5061059;28;20037;-36
2023/04/25 04:24:39;;;;;;;5.07;4.03;;;8.50;99.90;;;11.68;53.04;96926.22;5059099;28;20051;-36
2023/04/25 04:27:08;;;;;;;6.27;3.83;;;8.50;99.90;;;11.76;52.72;96930.59;5059038;28;20033;-36
2023/04/25 04:29:48;;;;;;;5.03;4.17;;;8.60;99.90;;;11.79;52.18;96924.91;5060889;28;20051;-36
2023/04/25 04:32:25;;;;;;;5.20;4.33;;;8.60;99.90;;;11.81;52.53;96937.03;5060820;28;20044;-36
2023/04/25 04:34:54;;;;;;;4.40;3.60;;;8.60;99.90;;;11.81;52.41;96934.38;5057280;28;20044;-36
2023/04/25 04:37:23;;;;;;;4.83;3.60;;;8.60;99.90;;;11.75;52.75;96937.78;5056753;28;20041;-36
2023/04/25 04:39:52;;;;;;;5.20;4.17;;;8.60;99.90;;;11.77;52.73;96940.28;5049391;28;20037;-37
2023/04/25 04:42:38;;;;;;;7.80;3.70;;;8.50;99.90;;;11.81;52.55;96939.72;5061265;28;20529;-36
2023/04/25 04:45:18;;;;;;;4.77;3.50;;;8.60;99.90;;;11.67;52.50;96939.72;5061068;28;20044;-36
2023/04/25 04:47:50;;;;;;;6.67;4.80;;;8.40;99.90;;;11.67;53.17;96940.56;5060376;28;20040;-36
2023/04/25 04:50:36;;;;;;;5.87;4.00;;;8.40;99.90;;;11.75;52.48;96943.13;5058557;28;20390;-37
2023/04/25 04:53:21;;;;;;;5.97;4.07;;;8.50;99.90;;;11.64;53.20;96951.59;5057431;28;20044;-36
2023/04/25 04:56:02;;;;;;;6.60;3.90;;;8.50;99.90;;;11.77;52.88;96956.28;5056721;28;20068;-36
2023/04/25 04:58:50;;;;;;;5.17;3.67;;;8.50;99.90;;;11.83;52.54;96955.53;5061560;28;20059;-36
2023/04/25 05:01:37;;;;;;;3.90;3.50;;;8.60;99.90;;;11.84;52.57;96957.16;5061638;28;20059;-36
2023/04/25 05:04:16;;;;;;;4.73;3.10;;;8.70;99.90;;;11.85;52.43;96955.34;5057267;28;20049;-36
2023/04/25 05:06:44;;;;;;;4.97;3.63;;;8.70;99.90;;;11.79;52.53;96955.06;5061100;28;20060;-36
2023/04/25 05:09:33;;;;;;;5.90;3.37;;;8.70;99.90;;;11.74;52.51;96953.97;5062019;28;20524;-36
2023/04/25 05:12:16;;;;;;;5.17;3.60;;;8.60;99.90;;;11.83;52.22;96952.88;5057218;28;20048;-36
2023/04/25 05:15:19;;;;;;;4.70;3.60;;;8.70;99.90;;;11.81;52.23;96950.38;4992779;28;20046;-37
2023/04/25 05:18:06;;;;;;;4.87;3.43;;;8.60;99.90;;;11.82;52.74;96957.38;5048601;28;20056;-36
2023/04/25 05:20:47;;;;;;;3.83;3.43;;;8.60;99.90;;;11.85;52.84;96956.16;5059567;28;20524;-36
2023/04/25 05:23:46;;;;;;;5.40;3.10;;;8.70;99.90;;;11.89;52.38;96961.97;5041740;28;22270;-36
2023/04/25 05:26:43;;;;;;;4.40;3.30;;;8.60;99.90;;;11.95;52.70;96953.25;5060730;28;20045;-37
2023/04/25 05:29:35;;;;;;;5.23;3.70;;;8.70;99.90;;;11.89;52.56;96954.81;5058814;28;20429;-36
2023/04/25 05:32:22;;;;;;;5.80;3.90;;;8.60;99.90;;;11.89;52.41;96959.28;5056968;28;20358;-36
2023/04/25 05:34:51;;;;;;;4.40;3.87;;;8.60;99.90;;;11.85;52.69;96958.03;5059832;28;20615;-36
2023/04/25 05:37:30;;;;;;;4.10;2.97;;;8.60;99.90;;;11.83;52.94;96958.19;5060087;28;20048;-36
2023/04/25 05:40:07;;;;;;;4.33;3.27;;;8.60;99.90;;;11.78;52.75;96957.91;5056914;28;20063;-36
2023/04/25 05:42:47;;;;;;;4.10;3.30;;;8.60;99.90;;;11.76;52.90;96959.94;5059284;28;20084;-36
2023/04/25 05:45:21;;;;;;;3.58;3.28;;;8.50;99.90;;;11.73;53.08;96960.31;5063063;28;20052;-36
2023/04/25 05:48:11;;;;;;;5.90;3.47;;;8.40;99.90;;;11.71;53.17;96965.00;5047665;28;20040;-36
2023/04/25 05:50:58;;;;;;;4.47;3.47;;;8.40;99.90;;;11.71;52.79;96960.50;5063122;28;20056;-36
2023/04/25 05:53:46;;;;;;;3.73;3.13;;;8.40;99.90;;;11.75;53.03;96955.63;5061434;28;20425;-36
2023/04/25 05:56:15;;;;;;;6.67;3.10;;;8.50;99.90;;;11.78;53.06;96956.06;5060116;28;20055;-37
2023/04/25 05:58:43;;;;;;;5.43;3.20;;;8.60;99.90;;;11.84;52.66;96965.16;5061599;28;20430;-37
2023/04/25 06:01:12;;;;;;;4.23;3.13;;;8.60;99.90;;;11.85;52.88;96963.34;5064000;28;20048;-37
2023/04/25 06:03:42;;;;;;;4.03;3.00;;;8.60;99.90;;;11.86;52.65;96960.47;5062814;28;20418;-36
2023/04/25 06:06:11;;;;;;;4.97;3.47;;;8.60;99.90;;;11.99;52.53;96970.53;5060333;28;20045;-36
2023/04/25 06:08:40;;;;;;;4.90;3.30;;;8.70;99.90;;;12.09;52.88;96968.38;5067978;28;20068;-36
2023/04/25 06:11:11;;;;;;;5.37;3.17;;;8.90;99.90;;;12.20;52.84;96973.25;5047696;28;20043;-36
2023/04/25 06:13:39;;;;;;;4.73;3.90;;;9.10;99.90;;;12.29;52.61;96967.78;5058120;28;20052;-36
2023/04/25 06:16:07;;;;;;;3.97;2.93;;;9.10;99.90;;;12.33;52.22;96967.22;5060095;28;20422;-36
2023/04/25 06:18:35;;;;;;;4.37;3.53;;;9.20;99.90;;;12.33;51.90;96961.03;5060842;28;20048;-36
2023/04/25 06:21:02;;;;;;;5.60;3.70;;;9.10;99.50;;;12.38;51.83;96970.13;5063833;28;20060;-36
2023/04/25 06:23:30;;;;;;;5.43;3.83;;;9.10;99.20;;;12.09;52.48;96956.88;5065331;28;20063;-37
2023/04/25 06:26:07;;;;;;;3.50;3.20;;;8.90;99.80;;;12.15;52.00;96969.47;5059513;28;20080;-36
2023/04/25 06:28:37;;;;;;;3.73;3.37;;;8.90;98.60;;;12.23;52.10;96972.03;5060584;28;20049;-37
2023/04/25 06:31:05;;;;;;;4.13;2.97;;;8.90;99.90;;;12.06;52.66;96966.09;5063594;28;20044;-37
2023/04/25 06:33:32;;;;;;;3.80;3.33;;;8.90;98.80;;;12.19;52.26;96970.75;5063171;28;20044;-37
2023/04/25 06:36:00;;;;;;;5.43;4.00;;;8.90;98.80;;;12.20;52.11;96965.22;5059270;28;20048;-37
2023/04/25 06:38:29;;;;;;;4.03;3.20;;;8.90;98.50;;;12.20;52.00;96961.75;5067740;28;20041;-37
2023/04/25 06:40:57;;;;;;;6.40;3.87;;;9.00;98.80;;;12.33;51.50;96964.56;5047976;28;20053;-49
2023/04/25 06:43:28;;;;;;;6.10;3.30;;;9.20;97.40;;;12.29;52.15;96965.97;5068783;28;20046;-46
2023/04/25 06:46:31;;;;;;;5.23;3.10;;;9.10;97.80;;;12.45;51.83;96966.75;5015596;28;20045;-47
2023/04/25 06:48:59;;;;;;;5.53;3.60;;;9.30;96.90;;;12.45;51.77;96964.06;5047848;28;20037;-47
2023/04/25 06:51:29;;;;;;;5.13;3.80;;;9.30;95.00;;;12.14;51.70;96963.31;5059375;28;20041;-49
2023/04/25 06:53:57;;;;;;;6.00;3.37;;;9.00;93.90;;;12.23;51.80;96961.34;5062753;28;20052;-48
2023/04/25 06:56:30;;;;;;;3.22;2.88;;;8.90;98.30;;;12.34;51.87;96963.53;5062393;28;20049;-48
2023/04/25 06:59:05;;;;;;;4.77;3.53;;;9.10;96.80;;;12.42;51.31;96962.59;5052353;28;20055;-47
2023/04/25 07:01:36;;;;;;;4.37;3.47;;;9.20;96.00;;;12.52;51.56;96970.28;5059666;28;20426;-46
2023/04/25 07:04:07;;;;;;;3.90;3.17;;;9.30;95.50;;;12.50;51.45;96967.81;5061296;28;20049;-48
2023/04/25 07:06:42;;;;;;;5.17;3.23;;;9.30;95.30;;;12.53;51.17;96967.44;5061567;28;20042;-51
2023/04/25 07:09:11;;;;;;;6.30;3.50;;;9.30;92.80;;;12.39;51.09;96971.81;5067659;28;20116;-50
2023/04/25 07:11:39;;;;;;;6.90;3.17;;;9.20;94.40;;;12.39;51.16;96971.81;5051193;28;20049;-50
2023/04/25 07:14:07;;;;;;;4.77;3.23;;;9.20;93.60;;;12.44;50.96;96976.56;5063903;28;20070;-49
2023/04/25 07:16:34;;;;;;;4.03;2.80;;;9.20;94.50;;;12.38;51.20;96985.34;5061031;28;20055;-48
2023/04/25 07:19:02;;;;;;;4.70;3.40;;;9.10;93.50;;;12.29;51.17;96981.13;5058505;28;20044;-48
2023/04/25 07:21:31;;;;;;;5.93;3.37;;;9.00;93.20;;;12.34;50.89;96978.72;5059083;28;20045;-48
2023/04/25 07:24:00;;;;;;;5.80;3.10;;;9.00;92.50;;;12.31;51.20;96982.63;5058501;28;20041;-48
2023/04/25 07:26:33;;;;;;;3.73;3.00;;;9.00;94.30;;;12.28;50.89;96982.97;5057820;28;20432;-49
2023/04/25 07:29:19;;;;;;;5.40;3.10;;;9.00;93.20;;;12.28;51.08;96988.31;5056807;28;20520;-49
2023/04/25 07:31:47;;;;;;;4.40;3.40;;;9.00;94.60;;;12.06;51.55;96991.94;5062107;28;20045;-47
2023/04/25 07:34:15;;;;;;;4.13;3.17;;;8.90;93.90;;;12.12;51.36;96991.22;5063321;28;20058;-46
2023/04/25 07:36:44;;;;;;;4.93;3.10;;;8.80;94.30;;;12.09;51.67;96992.41;5060857;28;20044;-46
2023/04/25 07:39:12;;;;;;;6.90;3.83;;;8.80;97.00;;;12.11;52.00;96994.88;5059983;28;20044;-48
2023/04/25 07:41:40;;;;;;;4.67;3.70;;;8.70;98.10;;;12.13;52.05;96990.19;5059222;28;20048;-46
2023/04/25 07:44:12;;;;;;;6.07;3.70;;;8.80;98.10;;;11.96;52.53;96993.06;5061535;28;20053;-50
2023/04/25 07:46:40;;;;;;;5.37;3.73;;;8.60;98.90;;;11.89;52.84;97002.81;5060302;28;20067;-47
2023/04/25 07:49:10;;;;;;;4.57;3.57;;;8.60;99.90;;;11.91;52.75;97002.66;5058320;28;20045;-46
2023/04/25 07:51:38;;;;;;;4.37;3.43;;;8.60;99.90;;;11.93;52.71;97008.63;5058446;28;20041;-49
2023/04/25 07:54:14;;;;;;;5.53;4.13;;;8.60;99.90;;;11.78;53.85;97009.41;5061540;28;20064;-49
2023/04/25 07:56:46;;;;;;;6.23;4.30;;;8.50;99.90;;;11.77;53.85;97020.28;5058496;28;20123;-50
2023/04/25 07:59:22;;;;;;;4.80;3.90;;;8.40;99.90;;;11.73;53.94;97013.63;5057903;28;20052;-49
2023/04/25 08:01:50;;;;;;;4.83;4.13;;;8.40;99.90;;;11.62;54.06;97013.09;5059733;28;20120;-48
2023/04/25 08:04:19;;;;;;;6.13;4.67;;;8.30;99.90;;;11.68;54.26;97022.19;5061593;28;20052;-48
2023/04/25 08:06:57;;;;;;;6.43;4.93;;;8.30;99.90;;;11.76;54.17;97027.44;5058438;28;20045;-48
2023/04/25 08:09:33;;;;;;;5.97;4.20;;;8.40;99.90;;;11.72;54.35;97020.00;5058334;28;20037;-47
2023/04/25 08:12:03;;;;;;;6.20;4.75;;;8.40;99.90;;;11.79;54.53;97023.59;5049643;28;20411;-46
2023/04/25 08:14:35;;;;;;;5.50;4.83;;;8.40;99.90;;;11.92;54.27;97025.63;5057671;28;20064;-47
2023/04/25 08:17:05;;;;;;;6.47;4.90;;;8.60;99.90;;;12.03;54.39;97030.50;5049282;28;20056;-46
2023/04/25 08:19:35;;;;;;;6.93;4.87;;;8.70;99.90;;;11.89;54.31;97033.97;5057702;28;20052;-47
2023/04/25 08:22:03;;;;;;;6.70;4.57;;;8.60;99.90;;;11.99;54.46;97035.38;5057955;28;20080;-50
2023/04/25 08:24:42;;;;;;;5.87;4.07;;;8.70;99.90;;;12.05;54.67;97041.81;5063910;28;20045;-45
2023/04/25 08:27:09;;;;;;;6.90;4.43;;;8.80;99.90;;;11.98;54.74;97046.22;5061266;28;20044;-49
2023/04/25 08:29:37;;;;;;;6.87;4.60;;;8.70;99.90;;;12.11;54.82;97048.25;5061136;28;20049;-48
2023/04/25 08:32:05;;;;;;;5.40;4.37;;;8.90;99.90;;;12.28;54.49;97052.38;5051061;28;20041;-48
2023/04/25 08:34:36;;;;;;;5.87;4.20;;;9.10;99.90;;;12.36;54.16;97054.09;5057393;28;20502;-49
2023/04/25 08:37:05;;;;;;;5.77;4.73;;;9.20;99.90;;;12.33;54.32;97054.47;5062966;28;20584;-47
2023/04/25 08:39:58;;;;;;;7.07;4.33;;;9.20;99.90;;;12.44;54.08;97054.00;5056739;28;20059;-47
2023/04/25 08:42:27;;;;;;;7.17;4.50;;;9.20;99.90;;;12.44;54.06;97064.66;5066294;28;20434;-46
2023/04/25 08:44:56;;;;;;;6.17;5.33;;;9.20;99.90;;;12.43;54.26;97068.38;5059041;28;20494;-50
2023/04/25 08:47:29;;;;;;;5.50;4.27;;;9.20;99.90;;;12.51;54.29;97067.44;5057627;28;20037;-45
2023/04/25 08:49:59;;;;;;;5.70;4.00;;;9.30;99.90;;;12.58;54.09;97065.66;5059959;28;20049;-47
2023/04/25 08:52:35;;;;;;;7.07;5.27;;;9.30;99.90;;;12.53;53.82;97071.56;5044849;28;20040;-49
2023/04/25 08:55:04;;;;;;;6.70;4.60;;;9.30;99.90;;;12.59;54.15;97070.81;5057785;28;20502;-47
2023/04/25 08:57:34;;;;;;;6.50;5.07;;;9.30;99.90;;;12.41;54.46;97075.72;5057577;28;20055;-49
2023/04/25 09:00:03;;;;;;;7.77;6.23;;;9.20;99.90;;;12.32;54.58;97076.84;5060334;28;20048;-46
2023/04/25 09:02:34;;;;;;;7.03;6.33;;;9.00;99.90;;;12.37;54.37;97085.13;5061003;28;20060;-47
2023/04/25 09:05:04;;;;;;;6.97;5.30;;;9.10;99.90;;;12.21;55.03;97084.31;5040853;28;20041;-46
2023/04/25 09:07:31;;;;;;;8.70;6.40;;;9.00;99.90;;;12.30;54.74;97089.56;5058527;28;20116;-47
2023/04/25 09:10:01;;;;;;;8.70;6.20;;;9.00;99.90;;;12.04;55.93;97090.84;5059248;28;20060;-49
2023/04/25 09:12:32;;;;;;;8.67;6.27;;;8.90;99.90;;;11.73;56.76;97097.16;5059794;28;20044;-46
2023/04/25 09:15:12;;;;;;;7.60;6.57;;;8.70;99.90;;;11.96;55.51;97097.09;5038728;28;20056;-50
2023/04/25 09:18:11;;;;;;;8.23;6.37;;;8.80;99.90;;;12.21;55.37;97104.81;5050099;28;20045;-49
2023/04/25 09:20:43;;;;;;;9.80;6.47;;;9.00;99.90;;;12.31;55.30;97101.88;5057124;28;20045;-49
2023/04/25 09:23:29;;;;;;;11.00;7.97;;;9.10;99.90;;;12.39;55.09;97109.78;5060736;28;20052;-48
2023/04/25 09:25:56;;;;;;;12.20;8.27;;;9.20;99.90;;;12.13;56.43;97110.25;5057444;28;20048;-49
2023/04/25 09:28:27;;;;;;;12.07;8.07;;;9.00;99.90;;;12.29;55.95;97118.09;5061171;28;20049;-48
2023/04/25 09:30:58;;;;;;;8.27;6.67;;;9.10;99.90;;;12.28;55.94;97121.75;5062863;28;20064;-47
2023/04/25 09:33:38;;;;;;;8.07;5.77;;;9.10;99.90;;;11.80;56.31;97121.22;5065651;28;20536;-46
2023/04/25 09:36:10;;;;;;;6.93;5.00;;;8.70;99.90;;;11.68;56.48;97128.03;5061715;28;20049;-49
2023/04/25 09:39:15;;;;;;;7.63;5.33;;;8.50;99.90;;;11.63;56.78;97129.41;5049494;28;20052;-48
2023/04/25 09:41:53;;;;;;;6.40;4.87;;;8.40;99.90;;;11.75;56.31;97131.63;5063865;28;20398;-46
2023/04/25 09:44:24;;;;;;;6.85;4.28;;;8.50;99.90;;;11.85;56.77;97144.72;5061417;28;20041;-49
2023/04/25 09:46:54;;;;;;;6.33;4.47;;;8.60;99.90;;;11.54;57.35;97149.13;5062752;28;20544;-46
2023/04/25 09:49:27;;;;;;;4.43;3.93;;;8.40;99.90;;;11.68;57.21;97155.50;5065087;28;20044;-46
2023/04/25 09:52:01;;;;;;;4.17;3.10;;;8.50;99.90;;;11.50;56.76;97155.84;5062138;28;20056;-50
2023/04/25 09:54:35;;;;;;;4.07;2.63;;;8.30;99.90;;;11.10;58.19;97159.63;5061575;28;20518;-47
2023/04/25 09:57:22;;;;;;;4.20;3.23;;;8.00;99.90;;;11.03;58.04;97170.13;5053948;28;20045;-47
2023/04/25 09:59:55;;;;;;;4.57;3.23;;;7.90;99.90;;;11.01;58.58;97172.13;5060726;28;20341;-47
2023/04/25 10:02:26;;;;;;;5.50;4.23;;;7.90;99.90;;;11.01;58.63;97198.78;5062630;28;20047;-46
2023/04/25 10:05:03;;;;;;;6.87;4.67;;;7.90;99.90;;;11.05;57.43;97186.78;5060820;28;20097;-50
2023/04/25 10:07:38;;;;;;;6.73;4.53;;;7.80;99.90;;;10.94;57.03;97193.34;5041614;28;20052;-46
2023/04/25 10:10:13;;;;;;;7.90;5.47;;;7.60;99.90;;;10.72;57.51;97202.06;5037690;28;20040;-45
2023/04/25 10:12:43;;;;;;;6.90;4.63;;;7.40;99.90;;;10.71;57.17;97203.91;5061762;28;20060;-52
2023/04/25 10:15:14;;;;;;;10.67;3.60;;;7.30;99.90;;;10.53;57.43;97206.81;5052468;28;20037;-48
2023/04/25 10:17:42;;;;;;;5.03;3.00;;;7.30;99.90;;;10.32;57.70;97217.19;5059689;28;20074;-47
2023/04/25 10:20:11;;;;;;;5.10;3.60;;;7.10;99.90;;;10.16;58.19;97218.84;5052543;28;20037;-47
2023/04/25 10:22:44;;;;;;;4.57;3.90;;;6.90;99.90;;;10.44;57.65;97218.50;5060413;28;20041;-49
2023/04/25 10:25:12;;;;;;;5.83;4.47;;;7.10;99.90;;;10.53;57.28;97225.44;5053532;28;20041;-47
2023/04/25 10:27:40;;;;;;;5.07;3.97;;;7.10;99.90;;;10.35;57.76;97224.81;5060046;28;20063;-49
2023/04/25 10:30:14;;;;;;;5.30;3.77;;;7.00;99.90;;;10.36;57.52;97229.16;5064779;28;20493;-48
2023/04/25 10:32:45;;;;;;;7.30;4.30;;;7.00;99.90;;;10.49;57.23;97229.47;5064963;28;20049;-47
2023/04/25 10:35:28;;;;;;;6.30;4.77;;;7.10;99.90;;;10.58;57.63;97231.06;5052365;28;20037;-46
2023/04/25 10:38:09;;;;;;;6.60;4.40;;;7.20;99.90;;;10.42;58.34;97231.97;5062840;28;20044;-46
2023/04/25 10:40:37;;;;;;;8.00;4.70;;;7.20;99.90;;;10.58;57.79;97238.25;5064759;28;20048;-48
2023/04/25 10:43:37;;;;;;;10.30;6.27;;;7.20;99.90;;;10.14;60.06;97236.81;5061785;28;20047;-50
2023/04/25 10:46:26;;;;;;;11.80;6.70;;;7.10;99.90;;;10.34;59.57;97244.47;5063377;28;20272;-47